createdAt,value
2018-09-29T00:02:00.734Z,64.60
2018-09-29T00:04:28.672Z,64.60
2018-09-29T00:06:56.598Z,64.70
2018-09-29T00:09:24.521Z,64.80
2018-09-29T00:11:52.468Z,64.10
2018-09-29T00:14:20.377Z,63.60
2018-09-29T00:16:48.309Z,63.00
2018-09-29T00:19:16.255Z,62.60
2018-09-29T00:21:44.230Z,61.90
2018-09-29T00:24:12.150Z,62.40
2018-09-29T00:26:40.049Z,62.40
2018-09-29T00:29:08.044Z,62.50
2018-09-29T00:31:35.993Z,62.50
2018-09-29T00:34:03.893Z,61.90
2018-09-29T00:36:31.992Z,61.60
2018-09-29T00:38:59.897Z,62.00
2018-09-29T00:41:27.787Z,62.10
2018-09-29T00:43:55.705Z,62.00
2018-09-29T00:46:23.701Z,62.20
2018-09-29T00:48:51.603Z,62.50
2018-09-29T00:51:19.581Z,63.00
2018-09-29T00:53:47.520Z,63.10
2018-09-29T00:56:15.496Z,63.30
2018-09-29T00:58:43.413Z,63.10
2018-09-29T01:01:11.363Z,63.00
2018-09-29T01:03:39.330Z,63.00
2018-09-29T01:06:07.245Z,62.90
2018-09-29T01:08:35.229Z,62.50
2018-09-29T01:11:03.148Z,61.80
2018-09-29T01:13:31.125Z,62.10
2018-09-29T01:15:59.081Z,61.90
2018-09-29T01:18:27.010Z,61.40
2018-09-29T01:20:54.948Z,60.30
2018-09-29T01:23:22.833Z,60.30
2018-09-29T01:25:50.824Z,59.30
2018-09-29T01:28:18.717Z,59.40
2018-09-29T01:30:46.596Z,58.80
2018-09-29T01:33:14.545Z,58.60
2018-09-29T01:35:42.479Z,58.90
2018-09-29T01:38:10.465Z,58.70
2018-09-29T01:40:38.394Z,58.00
2018-09-29T01:43:06.406Z,58.30
2018-09-29T01:45:34.295Z,58.60
2018-09-29T01:48:02.189Z,58.10
2018-09-29T01:50:30.237Z,58.00
2018-09-29T01:52:58.135Z,58.50
2018-09-29T01:55:26.049Z,58.30
2018-09-29T01:57:53.964Z,58.40
2018-09-29T02:00:21.890Z,58.00
2018-09-29T02:02:49.858Z,58.10
2018-09-29T02:05:17.896Z,58.10
2018-09-29T02:07:45.841Z,58.70
2018-09-29T02:10:13.798Z,58.90
2018-09-29T02:12:41.736Z,59.00
2018-09-29T02:15:09.870Z,58.20
2018-09-29T02:17:37.878Z,58.70
2018-09-29T02:20:05.847Z,59.00
2018-09-29T02:22:33.812Z,58.80
2018-09-29T02:25:01.746Z,59.40
2018-09-29T02:27:29.694Z,59.00
2018-09-29T02:29:57.603Z,59.00
2018-09-29T02:32:25.477Z,58.60
2018-09-29T02:34:53.365Z,59.00
2018-09-29T02:37:21.383Z,59.10
2018-09-29T02:39:49.268Z,59.00
2018-09-29T02:42:17.156Z,58.70
2018-09-29T02:44:45.082Z,58.80
2018-09-29T02:47:13.064Z,58.80
2018-09-29T02:49:41.021Z,59.20
2018-09-29T02:52:09.789Z,59.00
2018-09-29T02:54:37.725Z,59.00
2018-09-29T02:57:05.717Z,59.10
2018-09-29T02:59:33.682Z,58.40
2018-09-29T03:02:01.654Z,58.50
2018-09-29T03:04:29.556Z,58.10
2018-09-29T03:06:57.456Z,58.00
2018-09-29T03:09:25.405Z,57.50
2018-09-29T03:11:53.312Z,57.80
2018-09-29T03:14:21.213Z,57.80
2018-09-29T03:16:49.200Z,57.50
2018-09-29T03:19:17.135Z,57.80
2018-09-29T03:21:45.038Z,58.30
2018-09-29T03:24:12.981Z,57.60
2018-09-29T03:26:40.900Z,57.70
2018-09-29T03:29:08.824Z,57.90
2018-09-29T03:31:36.762Z,57.30
2018-09-29T03:34:04.694Z,57.10
2018-09-29T03:36:32.588Z,57.20
2018-09-29T03:39:00.525Z,56.90
2018-09-29T03:41:28.444Z,56.60
2018-09-29T03:43:56.350Z,56.50
2018-09-29T03:46:24.258Z,56.60
2018-09-29T03:48:52.166Z,57.30
2018-09-29T03:51:20.103Z,56.40
2018-09-29T03:53:48.005Z,56.70
2018-09-29T03:56:15.929Z,57.30
2018-09-29T03:58:43.902Z,56.50
2018-09-29T04:01:11.888Z,56.30
2018-09-29T04:03:39.825Z,56.00
2018-09-29T04:06:07.737Z,55.90
2018-09-29T04:08:35.640Z,56.00
2018-09-29T04:11:03.581Z,56.00
2018-09-29T04:13:32.531Z,55.50
2018-09-29T04:16:00.654Z,55.60
2018-09-29T04:18:28.542Z,54.90
2018-09-29T04:20:56.486Z,54.80
2018-09-29T04:23:24.472Z,53.70
2018-09-29T04:25:52.430Z,53.70
2018-09-29T04:28:20.364Z,53.10
2018-09-29T04:30:48.263Z,54.00
2018-09-29T04:33:16.133Z,54.60
2018-09-29T04:35:44.242Z,53.70
2018-09-29T04:38:12.114Z,53.30
2018-09-29T04:40:39.982Z,53.80
2018-09-29T04:43:07.941Z,54.10
2018-09-29T04:45:35.857Z,53.50
2018-09-29T04:48:03.785Z,53.70
2018-09-29T04:50:31.733Z,53.50
2018-09-29T04:52:59.677Z,53.00
2018-09-29T04:55:28.171Z,53.20
2018-09-29T04:57:56.094Z,53.60
2018-09-29T05:00:24.076Z,53.30
2018-09-29T05:02:51.937Z,53.50
2018-09-29T05:05:19.988Z,54.10
2018-09-29T05:07:47.941Z,54.40
2018-09-29T05:10:15.828Z,54.20
2018-09-29T05:12:43.762Z,53.60
2018-09-29T05:15:11.730Z,52.90
2018-09-29T05:17:39.670Z,53.60
2018-09-29T05:20:07.705Z,53.10
2018-09-29T05:22:35.579Z,53.40
2018-09-29T05:25:03.545Z,53.80
2018-09-29T05:27:31.448Z,53.60
2018-09-29T05:29:59.984Z,53.60
2018-09-29T05:32:27.861Z,53.80
2018-09-29T05:34:55.706Z,53.70
2018-09-29T05:37:23.749Z,54.10
2018-09-29T05:39:51.793Z,53.70
2018-09-29T05:42:19.768Z,54.00
2018-09-29T05:44:47.650Z,54.40
2018-09-29T05:47:15.618Z,54.40
2018-09-29T05:49:43.557Z,54.60
2018-09-29T05:52:11.505Z,54.70
2018-09-29T05:54:39.430Z,54.60
2018-09-29T05:57:07.465Z,54.40
2018-09-29T05:59:35.441Z,54.70
2018-09-29T06:02:03.390Z,55.20
2018-09-29T06:04:31.292Z,55.30
2018-09-29T06:06:59.331Z,55.40
2018-09-29T06:09:27.219Z,55.80
2018-09-29T06:11:55.113Z,55.70
2018-09-29T06:14:23.209Z,55.70
2018-09-29T06:16:51.121Z,55.80
2018-09-29T06:19:19.084Z,55.80
2018-09-29T06:21:46.981Z,55.50
2018-09-29T06:24:14.907Z,55.80
2018-09-29T06:26:42.872Z,56.00
2018-09-29T06:29:10.813Z,55.70
2018-09-29T06:31:38.746Z,55.80
2018-09-29T06:34:06.704Z,55.50
2018-09-29T06:36:34.626Z,55.20
2018-09-29T06:39:02.766Z,55.50
2018-09-29T06:41:30.906Z,55.30
2018-09-29T06:43:58.850Z,55.10
2018-09-29T06:46:26.841Z,54.40
2018-09-29T06:48:54.749Z,54.30
2018-09-29T06:51:22.687Z,54.00
2018-09-29T06:53:50.602Z,53.70
2018-09-29T06:56:18.760Z,53.40
2018-09-29T06:58:46.706Z,54.40
2018-09-29T07:01:14.631Z,54.00
2018-09-29T07:03:43.085Z,54.30
2018-09-29T07:06:11.145Z,54.60
2018-09-29T07:08:39.153Z,54.70
2018-09-29T07:11:07.126Z,54.80
2018-09-29T07:13:35.026Z,54.20
2018-09-29T07:16:02.978Z,53.30
2018-09-29T07:18:30.857Z,53.30
2018-09-29T07:20:58.873Z,53.40
2018-09-29T07:23:26.803Z,52.70
2018-09-29T07:25:55.060Z,53.40
2018-09-29T07:28:22.993Z,53.60
2018-09-29T07:30:50.957Z,53.40
2018-09-29T07:33:19.114Z,53.30
2018-09-29T07:35:46.988Z,53.20
2018-09-29T07:38:14.899Z,52.60
2018-09-29T07:40:42.797Z,52.50
2018-09-29T07:43:10.661Z,52.50
2018-09-29T07:45:38.632Z,52.80
2018-09-29T07:48:06.557Z,52.80
2018-09-29T07:50:34.545Z,52.80
2018-09-29T07:53:02.591Z,51.00
2018-09-29T07:55:31.391Z,51.90
2018-09-29T07:57:59.537Z,51.50
2018-09-29T08:00:27.642Z,51.20
2018-09-29T08:02:55.652Z,51.20
2018-09-29T08:05:23.546Z,50.40
2018-09-29T08:07:51.466Z,49.70
2018-09-29T08:10:21.521Z,50.60
2018-09-29T08:12:49.446Z,50.60
2018-09-29T08:15:17.557Z,50.60
2018-09-29T08:17:45.510Z,50.60
2018-09-29T08:20:13.453Z,50.60
2018-09-29T08:22:41.464Z,50.00
2018-09-29T08:25:09.429Z,50.30
2018-09-29T08:27:37.405Z,51.20
2018-09-29T08:30:05.455Z,50.10
2018-09-29T08:32:33.402Z,49.60
2018-09-29T08:35:01.382Z,49.90
2018-09-29T08:37:29.351Z,49.40
2018-09-29T08:39:57.409Z,49.20
2018-09-29T08:42:25.329Z,49.90
2018-09-29T08:44:53.213Z,49.80
2018-09-29T08:47:21.313Z,49.30
2018-09-29T08:49:49.346Z,49.70
2018-09-29T08:52:17.384Z,49.10
2018-09-29T08:54:45.293Z,49.70
2018-09-29T08:57:13.286Z,49.60
2018-09-29T08:59:42.161Z,47.50
2018-09-29T09:02:10.097Z,47.30
2018-09-29T09:04:38.082Z,47.40
2018-09-29T09:07:06.163Z,48.10
2018-09-29T09:09:34.579Z,47.50
2018-09-29T09:12:03.578Z,48.10
2018-09-29T09:14:31.489Z,47.80
2018-09-29T09:16:59.622Z,48.00
2018-09-29T09:19:27.505Z,47.60
2018-09-29T09:21:55.481Z,46.90
2018-09-29T09:24:23.434Z,47.90
2018-09-29T09:26:51.997Z,47.50
2018-09-29T09:29:20.597Z,47.30
2018-09-29T09:31:48.524Z,47.50
2018-09-29T09:34:16.485Z,47.10
2018-09-29T09:36:44.632Z,45.50
2018-09-29T09:39:12.556Z,46.40
2018-09-29T09:41:40.721Z,45.30
2018-09-29T09:44:08.849Z,45.70
2018-09-29T09:46:36.781Z,46.40
2018-09-29T09:49:04.821Z,46.20
2018-09-29T09:51:32.941Z,46.70
2018-09-29T09:54:01.026Z,46.60
2018-09-29T09:56:29.017Z,46.80
2018-09-29T09:58:57.258Z,46.10
2018-09-29T10:01:30.796Z,46.50
2018-09-29T10:03:58.747Z,44.50
2018-09-29T10:06:26.883Z,44.70
2018-09-29T10:08:54.764Z,45.00
2018-09-29T10:11:22.930Z,45.20
2018-09-29T10:13:50.868Z,45.60
2018-09-29T10:16:19.750Z,45.90
2018-09-29T10:18:48.636Z,43.20
2018-09-29T10:21:18.151Z,44.60
2018-09-29T10:23:46.105Z,43.70
2018-09-29T10:26:14.157Z,44.60
2018-09-29T10:28:42.634Z,43.40
2018-09-29T10:31:11.515Z,43.10
2018-09-29T10:33:40.358Z,43.70
2018-09-29T10:36:08.277Z,44.20
2018-09-29T10:38:36.233Z,43.90
2018-09-29T10:41:04.197Z,39.40
2018-09-29T10:43:32.305Z,43.10
2018-09-29T10:46:01.374Z,43.50
2018-09-29T10:48:29.465Z,43.90
2018-09-29T10:50:57.469Z,44.10
2018-09-29T10:53:25.432Z,42.60
2018-09-29T10:55:53.368Z,40.60
2018-09-29T10:58:21.904Z,41.30
2018-09-29T11:00:49.923Z,40.70
2018-09-29T11:03:17.918Z,42.40
2018-09-29T11:05:45.928Z,41.60
2018-09-29T11:08:14.137Z,41.00
2018-09-29T11:10:42.050Z,41.10
2018-09-29T11:13:10.267Z,40.40
2018-09-29T11:15:38.216Z,38.80
2018-09-29T11:18:06.213Z,41.00
2018-09-29T11:20:34.315Z,41.80
2018-09-29T11:23:02.235Z,40.90
2018-09-29T11:25:30.200Z,37.50
2018-09-29T11:27:58.336Z,41.00
2018-09-29T11:30:26.303Z,40.30
2018-09-29T11:32:54.293Z,39.50
2018-09-29T11:35:22.534Z,40.60
2018-09-29T11:37:51.019Z,41.80
2018-09-29T11:40:18.970Z,41.00
2018-09-29T11:42:46.884Z,40.10
2018-09-29T11:45:14.901Z,40.00
2018-09-29T11:47:43.108Z,40.70
2018-09-29T11:50:11.093Z,40.80
2018-09-29T11:52:39.085Z,34.70
2018-09-29T11:55:07.046Z,38.60
2018-09-29T11:57:34.982Z,38.30
2018-09-29T12:00:02.983Z,38.70
2018-09-29T12:02:31.009Z,39.20
2018-09-29T12:04:58.977Z,39.40
2018-09-29T12:07:27.878Z,39.40
2018-09-29T12:09:55.778Z,38.40
2018-09-29T12:12:23.731Z,39.20
2018-09-29T12:14:51.718Z,39.80
2018-09-29T12:17:19.617Z,36.50
2018-09-29T12:19:48.332Z,34.50
2018-09-29T12:22:16.352Z,35.00
2018-09-29T12:24:44.287Z,36.90
2018-09-29T12:27:12.332Z,38.10
2018-09-29T12:29:40.233Z,35.20
2018-09-29T12:32:08.208Z,37.70
2018-09-29T12:34:36.162Z,34.30
2018-09-29T12:37:04.278Z,33.60
2018-09-29T12:39:32.237Z,35.30
2018-09-29T12:42:00.215Z,36.60
2018-09-29T12:44:28.544Z,36.70
2018-09-29T12:46:56.450Z,35.80
2018-09-29T12:49:25.524Z,35.80
2018-09-29T12:51:53.525Z,36.30
2018-09-29T12:54:21.499Z,34.90
2018-09-29T12:56:49.522Z,36.90
2018-09-29T12:59:17.720Z,37.20
2018-09-29T13:01:46.057Z,36.70
2018-09-29T13:04:14.662Z,37.10
2018-09-29T13:06:42.879Z,35.30
2018-09-29T13:09:10.988Z,35.60
2018-09-29T13:11:39.080Z,36.40
2018-09-29T13:14:07.533Z,36.00
2018-09-29T13:16:36.257Z,35.50
2018-09-29T13:19:04.689Z,35.50
2018-09-29T13:21:32.698Z,36.60
2018-09-29T13:24:00.683Z,37.20
2018-09-29T13:26:28.986Z,37.70
2018-09-29T13:28:57.661Z,37.50
2018-09-29T13:31:25.645Z,37.00
2018-09-29T13:33:53.650Z,36.70
2018-09-29T13:36:21.754Z,37.10
2018-09-29T13:38:50.130Z,36.70
2018-09-29T13:41:18.410Z,35.50
2018-09-29T13:43:46.826Z,37.10
2018-09-29T13:46:15.730Z,36.80
2018-09-29T13:48:43.936Z,36.80
2018-09-29T13:51:12.009Z,34.10
2018-09-29T13:53:40.270Z,34.90
2018-09-29T13:56:08.273Z,35.50
2018-09-29T13:58:36.219Z,34.30
2018-09-29T14:01:04.334Z,33.10
2018-09-29T14:03:32.291Z,33.00
2018-09-29T14:06:00.381Z,33.60
2018-09-29T14:08:28.428Z,32.40
2018-09-29T14:10:56.416Z,30.60
2018-09-29T14:13:24.445Z,32.10
2018-09-29T14:18:20.906Z,30.10
2018-09-29T14:23:19.733Z,30.20
2018-09-29T14:25:48.196Z,30.00
2018-09-29T14:30:44.228Z,28.90
2018-09-29T14:33:12.172Z,28.50
2018-09-29T14:38:08.080Z,28.60
2018-09-29T14:40:36.041Z,28.60
2018-09-29T14:43:04.021Z,28.30
2018-09-29T14:45:31.942Z,29.50
2018-09-29T16:38:53.143Z,27.80
2018-09-29T16:41:21.194Z,28.50
2018-09-29T16:43:49.201Z,28.70
2018-09-29T16:46:17.150Z,29.10
2018-09-29T16:48:45.137Z,29.50
2018-09-29T16:51:13.209Z,29.60
2018-09-29T16:53:41.150Z,29.80
2018-09-29T16:56:09.099Z,30.00
2018-09-29T16:58:36.983Z,30.10
2018-09-29T17:01:05.083Z,30.50
2018-09-29T17:03:33.112Z,30.60
2018-09-29T17:06:01.023Z,31.20
2018-09-29T17:08:28.964Z,31.60
2018-09-29T17:10:57.435Z,32.40
2018-09-29T17:13:25.413Z,32.30
2018-09-29T17:15:53.423Z,32.50
2018-09-29T17:18:21.449Z,32.90
2018-09-29T17:20:49.372Z,33.20
2018-09-29T17:23:17.329Z,33.70
2018-09-29T17:25:45.252Z,34.10
2018-09-29T17:28:13.471Z,34.60
2018-09-29T17:30:41.379Z,34.70
2018-09-29T17:33:09.287Z,35.00
2018-09-29T17:35:38.292Z,34.70
2018-09-29T17:38:06.238Z,34.60
2018-09-29T17:40:34.229Z,35.40
2018-09-29T17:43:02.721Z,35.50
2018-09-29T17:45:30.646Z,35.50
2018-09-29T17:47:58.704Z,35.90
2018-09-29T17:50:26.839Z,36.00
2018-09-29T17:52:55.218Z,36.30
2018-09-29T17:55:23.127Z,36.30
2018-09-29T17:57:51.040Z,36.60
2018-09-29T18:00:18.968Z,36.90
2018-09-29T18:02:47.095Z,37.30
2018-09-29T18:05:14.983Z,37.50
2018-09-29T18:07:42.906Z,38.00
2018-09-29T18:10:10.899Z,38.20
2018-09-29T18:12:38.778Z,38.40
2018-09-29T18:15:06.778Z,38.40
2018-09-29T18:17:34.678Z,38.70
2018-09-29T18:20:02.746Z,39.00
2018-09-29T18:22:30.694Z,40.00
2018-09-29T18:24:58.617Z,40.00
2018-09-29T18:27:26.619Z,39.50
2018-09-29T18:29:54.558Z,40.00
2018-09-29T18:32:22.560Z,40.60
2018-09-29T18:34:50.428Z,39.90
2018-09-29T18:37:18.474Z,40.40
2018-09-29T18:39:46.368Z,40.80
2018-09-29T18:42:14.506Z,40.70
2018-09-29T18:44:42.520Z,41.20
2018-09-29T18:47:10.546Z,41.00
2018-09-29T18:49:38.824Z,42.10
2018-09-29T18:52:06.981Z,41.60
2018-09-29T18:54:34.957Z,41.20
2018-09-29T18:57:02.879Z,41.30
2018-09-29T18:59:30.838Z,41.80
2018-09-29T19:01:58.778Z,42.90
2018-09-29T19:04:26.745Z,43.00
2018-09-29T19:06:54.756Z,42.90
2018-09-29T19:09:22.714Z,43.40
2018-09-29T19:11:50.695Z,42.80
2018-09-29T19:14:20.356Z,43.30
2018-09-29T19:16:48.450Z,43.80
2018-09-29T19:19:16.421Z,43.70
2018-09-29T19:21:44.389Z,43.30
2018-09-29T19:24:12.348Z,43.70
2018-09-29T19:26:40.326Z,44.40
2018-09-29T19:29:08.632Z,43.90
2018-09-29T19:31:36.569Z,44.20
2018-09-29T19:34:04.528Z,44.50
2018-09-29T19:36:33.906Z,44.60
2018-09-29T19:39:02.478Z,44.80
2018-09-29T19:41:31.165Z,45.10
2018-09-29T19:44:01.966Z,45.20
2018-09-29T19:46:30.233Z,45.40
2018-09-29T19:48:58.165Z,45.50
2018-09-29T19:51:26.599Z,45.50
2018-09-29T19:53:54.592Z,45.60
2018-09-29T19:56:22.827Z,45.90
2018-09-29T19:58:50.780Z,46.50
2018-09-29T20:01:18.703Z,46.30
2018-09-29T20:03:46.803Z,46.50
2018-09-29T20:06:14.724Z,46.90
2018-09-29T20:08:42.640Z,46.70
2018-09-29T20:11:11.521Z,47.00
2018-09-29T20:13:39.431Z,47.10
2018-09-29T20:16:07.624Z,47.30
2018-09-29T20:18:35.710Z,48.40
2018-09-29T20:21:03.690Z,48.40
2018-09-29T20:23:31.634Z,48.40
2018-09-29T20:25:59.584Z,48.70
2018-09-29T20:28:27.574Z,48.60
2018-09-29T20:30:55.468Z,48.80
2018-09-29T20:33:23.438Z,48.90
2018-09-29T20:35:51.500Z,49.00
2018-09-29T20:38:19.393Z,49.10
2018-09-29T20:40:47.365Z,49.20
2018-09-29T20:43:15.323Z,49.20
2018-09-29T20:45:43.327Z,49.50
2018-09-29T20:48:11.285Z,49.60
2018-09-29T20:50:39.204Z,49.70
2018-09-29T20:53:07.244Z,49.90
2018-09-29T20:55:35.162Z,49.90
2018-09-29T20:58:03.157Z,50.20
2018-09-29T21:00:31.114Z,50.30
2018-09-29T21:02:59.079Z,50.20
2018-09-29T21:05:27.102Z,50.50
2018-09-29T21:07:55.092Z,50.60
2018-09-29T21:10:23.046Z,50.60
2018-09-29T21:12:50.982Z,50.90
2018-09-29T21:15:19.768Z,50.80
2018-09-29T21:17:47.728Z,51.20
2018-09-29T21:20:15.701Z,51.10
2018-09-29T21:22:43.908Z,51.20
2018-09-29T21:25:11.927Z,51.20
2018-09-29T21:27:39.863Z,51.50
2018-09-29T21:30:08.297Z,51.50
2018-09-29T21:32:36.281Z,51.60
2018-09-29T21:35:04.342Z,51.80
2018-09-29T21:37:32.312Z,51.80
2018-09-29T21:40:00.202Z,52.00
2018-09-29T21:42:28.182Z,52.20
2018-09-29T21:44:56.033Z,52.20
2018-09-29T21:47:23.989Z,52.70
2018-09-29T21:49:51.913Z,52.30
2018-09-29T21:52:19.900Z,53.00
2018-09-29T21:54:48.588Z,52.50
2018-09-29T21:57:16.483Z,52.60
2018-09-29T21:59:44.425Z,52.80
2018-09-29T22:02:12.313Z,52.80
2018-09-29T22:04:40.281Z,52.90
2018-09-29T22:07:08.239Z,52.80
2018-09-29T22:09:36.147Z,53.00
2018-09-29T22:12:04.672Z,53.00
2018-09-29T22:14:32.682Z,53.30
2018-09-29T22:17:01.104Z,53.20
2018-09-29T22:19:29.117Z,53.40
2018-09-29T22:21:57.513Z,53.60
2018-09-29T22:24:25.456Z,53.60
2018-09-29T22:26:53.349Z,53.70
2018-09-29T22:29:21.281Z,53.90
2018-09-29T22:31:49.299Z,54.10
2018-09-29T22:34:17.217Z,54.10
2018-09-29T22:36:45.137Z,54.10
2018-09-29T22:39:13.109Z,54.10
2018-09-29T22:41:41.017Z,54.50
2018-09-29T22:44:09.316Z,54.30
2018-09-29T22:46:37.244Z,54.40
2018-09-29T22:49:05.546Z,54.90
2018-09-29T22:51:33.480Z,54.40
2018-09-29T22:54:01.405Z,54.10
2018-09-29T22:56:29.373Z,54.60
2018-09-29T22:58:57.354Z,54.10
2018-09-29T23:01:25.338Z,54.00
2018-09-29T23:03:53.744Z,54.10
2018-09-29T23:06:21.675Z,54.10
2018-09-29T23:08:49.816Z,54.20
2018-09-29T23:11:17.788Z,54.40
2018-09-29T23:13:45.705Z,54.50
2018-09-29T23:16:13.905Z,54.60
2018-09-29T23:18:42.121Z,54.70
2018-09-29T23:21:10.848Z,54.60
2018-09-29T23:23:38.785Z,54.70
2018-09-29T23:26:06.773Z,54.90
2018-09-29T23:28:34.718Z,54.90
2018-09-29T23:31:02.656Z,55.00
2018-09-29T23:33:31.568Z,55.20
2018-09-29T23:35:59.503Z,55.10
2018-09-29T23:38:27.419Z,55.60
2018-09-29T23:40:55.371Z,56.00
2018-09-29T23:43:23.365Z,55.20
2018-09-29T23:45:51.371Z,55.20
2018-09-29T23:48:19.281Z,55.30
2018-09-29T23:50:47.253Z,55.80
2018-09-29T23:53:15.302Z,55.30
2018-09-29T23:55:43.249Z,55.90
2018-09-29T23:58:11.812Z,55.60
